sensor_id;sensor_type;location;lat;lon;timestamp;P1;durP1;ratioP1;P2;durP2;ratioP2
29908;SDS011;36247;51.952;6.146;2023-11-21T00:01:16;30.67;;;14.45;;
29908;SDS011;36247;51.952;6.146;2023-11-21T00:03:42;26.83;;;14.10;;
29908;SDS011;36247;51.952;6.146;2023-11-21T00:06:08;22.60;;;12.20;;
29908;SDS011;36247;51.952;6.146;2023-11-21T00:08:36;21.27;;;12.57;;
29908;SDS011;36247;51.952;6.146;2023-11-21T00:11:03;19.67;;;12.10;;
29908;SDS011;36247;51.952;6.146;2023-11-21T00:13:31;21.70;;;13.27;;
29908;SDS011;36247;51.952;6.146;2023-11-21T00:15:57;28.77;;;13.52;;
29908;SDS011;36247;51.952;6.146;2023-11-21T00:18:22;28.35;;;14.68;;
29908;SDS011;36247;51.952;6.146;2023-11-21T00:20:48;22.17;;;13.75;;
29908;SDS011;36247;51.952;6.146;2023-11-21T00:23:13;18.15;;;12.07;;
29908;SDS011;36247;51.952;6.146;2023-11-21T00:25:39;20.15;;;11.65;;
29908;SDS011;36247;51.952;6.146;2023-11-21T00:28:05;23.13;;;12.85;;
29908;SDS011;36247;51.952;6.146;2023-11-21T00:30:31;25.25;;;13.30;;
29908;SDS011;36247;51.952;6.146;2023-11-21T00:32:57;26.88;;;13.50;;
29908;SDS011;36247;51.952;6.146;2023-11-21T00:35:24;20.25;;;12.07;;
29908;SDS011;36247;51.952;6.146;2023-11-21T00:37:50;26.65;;;13.25;;
29908;SDS011;36247;51.952;6.146;2023-11-21T00:40:15;21.75;;;13.02;;
29908;SDS011;36247;51.952;6.146;2023-11-21T00:42:44;22.83;;;12.93;;
29908;SDS011;36247;51.952;6.146;2023-11-21T00:45:10;24.50;;;12.60;;
29908;SDS011;36247;51.952;6.146;2023-11-21T00:47:36;24.25;;;13.55;;
29908;SDS011;36247;51.952;6.146;2023-11-21T00:50:02;28.27;;;14.07;;
29908;SDS011;36247;51.952;6.146;2023-11-21T00:52:29;23.90;;;13.70;;
29908;SDS011;36247;51.952;6.146;2023-11-21T00:54:54;37.78;;;14.25;;
29908;SDS011;36247;51.952;6.146;2023-11-21T00:57:19;20.48;;;11.63;;
29908;SDS011;36247;51.952;6.146;2023-11-21T00:59:45;26.50;;;13.27;;
29908;SDS011;36247;51.952;6.146;2023-11-21T01:02:11;30.30;;;16.23;;
29908;SDS011;36247;51.952;6.146;2023-11-21T01:04:36;31.42;;;18.00;;
29908;SDS011;36247;51.952;6.146;2023-11-21T01:07:02;23.52;;;14.13;;
29908;SDS011;36247;51.952;6.146;2023-11-21T01:09:29;23.75;;;13.80;;
29908;SDS011;36247;51.952;6.146;2023-11-21T01:11:55;23.98;;;14.23;;
29908;SDS011;36247;51.952;6.146;2023-11-21T01:14:20;26.88;;;15.27;;
29908;SDS011;36247;51.952;6.146;2023-11-21T01:16:46;27.67;;;15.15;;
29908;SDS011;36247;51.952;6.146;2023-11-21T01:19:12;37.47;;;18.27;;
29908;SDS011;36247;51.952;6.146;2023-11-21T01:21:38;40.03;;;20.05;;
29908;SDS011;36247;51.952;6.146;2023-11-21T01:24:03;38.28;;;19.80;;
29908;SDS011;36247;51.952;6.146;2023-11-21T01:26:32;45.28;;;19.67;;
29908;SDS011;36247;51.952;6.146;2023-11-21T01:28:58;44.35;;;21.27;;
29908;SDS011;36247;51.952;6.146;2023-11-21T01:31:24;41.65;;;20.52;;
29908;SDS011;36247;51.952;6.146;2023-11-21T01:33:54;39.85;;;19.70;;
29908;SDS011;36247;51.952;6.146;2023-11-21T01:36:20;37.22;;;19.17;;
29908;SDS011;36247;51.952;6.146;2023-11-21T01:38:46;40.20;;;19.20;;
29908;SDS011;36247;51.952;6.146;2023-11-21T01:41:13;38.22;;;18.85;;
29908;SDS011;36247;51.952;6.146;2023-11-21T01:43:42;41.72;;;19.55;;
29908;SDS011;36247;51.952;6.146;2023-11-21T01:46:08;36.83;;;19.92;;
29908;SDS011;36247;51.952;6.146;2023-11-21T01:48:35;41.97;;;20.85;;
29908;SDS011;36247;51.952;6.146;2023-11-21T01:51:00;39.72;;;20.05;;
29908;SDS011;36247;51.952;6.146;2023-11-21T01:53:27;43.42;;;22.05;;
29908;SDS011;36247;51.952;6.146;2023-11-21T01:55:53;56.83;;;22.83;;
29908;SDS011;36247;51.952;6.146;2023-11-21T01:58:20;45.75;;;21.85;;
29908;SDS011;36247;51.952;6.146;2023-11-21T02:00:47;57.25;;;22.52;;
29908;SDS011;36247;51.952;6.146;2023-11-21T02:03:18;46.20;;;21.48;;
29908;SDS011;36247;51.952;6.146;2023-11-21T02:05:43;44.72;;;22.75;;
29908;SDS011;36247;51.952;6.146;2023-11-21T02:08:09;45.88;;;23.55;;
29908;SDS011;36247;51.952;6.146;2023-11-21T02:10:36;51.20;;;21.23;;
29908;SDS011;36247;51.952;6.146;2023-11-21T02:13:02;42.47;;;21.95;;
29908;SDS011;36247;51.952;6.146;2023-11-21T02:15:28;48.80;;;21.33;;
29908;SDS011;36247;51.952;6.146;2023-11-21T02:17:54;41.85;;;20.90;;
29908;SDS011;36247;51.952;6.146;2023-11-21T02:20:21;43.65;;;21.75;;
29908;SDS011;36247;51.952;6.146;2023-11-21T02:22:50;41.33;;;20.50;;
29908;SDS011;36247;51.952;6.146;2023-11-21T02:25:26;45.33;;;23.30;;
29908;SDS011;36247;51.952;6.146;2023-11-21T02:27:56;44.10;;;21.80;;
29908;SDS011;36247;51.952;6.146;2023-11-21T02:30:23;48.05;;;22.75;;
29908;SDS011;36247;51.952;6.146;2023-11-21T02:32:51;45.58;;;22.88;;
29908;SDS011;36247;51.952;6.146;2023-11-21T02:35:22;43.25;;;21.35;;
29908;SDS011;36247;51.952;6.146;2023-11-21T02:37:48;54.33;;;23.98;;
29908;SDS011;36247;51.952;6.146;2023-11-21T02:40:14;43.03;;;21.80;;
29908;SDS011;36247;51.952;6.146;2023-11-21T02:42:43;43.53;;;21.00;;
29908;SDS011;36247;51.952;6.146;2023-11-21T02:45:19;53.55;;;23.77;;
29908;SDS011;36247;51.952;6.146;2023-11-21T02:47:50;48.97;;;23.42;;
29908;SDS011;36247;51.952;6.146;2023-11-21T02:50:15;51.97;;;24.35;;
29908;SDS011;36247;51.952;6.146;2023-11-21T02:52:41;54.85;;;24.33;;
29908;SDS011;36247;51.952;6.146;2023-11-21T02:55:07;63.78;;;26.65;;
29908;SDS011;36247;51.952;6.146;2023-11-21T02:57:32;62.85;;;28.52;;
29908;SDS011;36247;51.952;6.146;2023-11-21T02:59:58;77.75;;;28.85;;
29908;SDS011;36247;51.952;6.146;2023-11-21T03:02:25;71.75;;;28.33;;
29908;SDS011;36247;51.952;6.146;2023-11-21T03:04:51;77.07;;;30.05;;
29908;SDS011;36247;51.952;6.146;2023-11-21T03:07:18;81.30;;;30.52;;
29908;SDS011;36247;51.952;6.146;2023-11-21T03:09:44;80.93;;;31.42;;
29908;SDS011;36247;51.952;6.146;2023-11-21T03:12:11;82.68;;;30.65;;
29908;SDS011;36247;51.952;6.146;2023-11-21T03:14:40;86.55;;;31.80;;
29908;SDS011;36247;51.952;6.146;2023-11-21T03:17:06;84.55;;;29.83;;
29908;SDS011;36247;51.952;6.146;2023-11-21T03:19:31;82.47;;;29.00;;
29908;SDS011;36247;51.952;6.146;2023-11-21T03:21:57;108.13;;;29.20;;
29908;SDS011;36247;51.952;6.146;2023-11-21T03:24:22;88.78;;;31.55;;
29908;SDS011;36247;51.952;6.146;2023-11-21T03:26:48;147.13;;;35.33;;
29908;SDS011;36247;51.952;6.146;2023-11-21T03:29:14;105.05;;;30.83;;
29908;SDS011;36247;51.952;6.146;2023-11-21T03:31:40;98.88;;;33.05;;
29908;SDS011;36247;51.952;6.146;2023-11-21T03:34:06;100.65;;;31.40;;
29908;SDS011;36247;51.952;6.146;2023-11-21T03:36:32;107.32;;;31.70;;
29908;SDS011;36247;51.952;6.146;2023-11-21T03:38:57;94.80;;;32.95;;
29908;SDS011;36247;51.952;6.146;2023-11-21T03:41:23;131.05;;;32.97;;
29908;SDS011;36247;51.952;6.146;2023-11-21T03:43:48;111.22;;;33.85;;
29908;SDS011;36247;51.952;6.146;2023-11-21T03:46:14;113.72;;;30.05;;
29908;SDS011;36247;51.952;6.146;2023-11-21T03:48:39;114.78;;;33.88;;
29908;SDS011;36247;51.952;6.146;2023-11-21T03:51:07;113.13;;;32.72;;
29908;SDS011;36247;51.952;6.146;2023-11-21T03:53:33;102.80;;;32.75;;
29908;SDS011;36247;51.952;6.146;2023-11-21T03:56:02;166.40;;;32.38;;
29908;SDS011;36247;51.952;6.146;2023-11-21T03:58:28;179.32;;;33.88;;
29908;SDS011;36247;51.952;6.146;2023-11-21T04:00:54;142.80;;;33.75;;
29908;SDS011;36247;51.952;6.146;2023-11-21T04:03:19;139.57;;;34.00;;
29908;SDS011;36247;51.952;6.146;2023-11-21T04:05:45;111.93;;;33.17;;
29908;SDS011;36247;51.952;6.146;2023-11-21T04:08:11;105.25;;;32.25;;
29908;SDS011;36247;51.952;6.146;2023-11-21T04:10:36;121.35;;;31.88;;
29908;SDS011;36247;51.952;6.146;2023-11-21T04:13:02;123.25;;;31.80;;
29908;SDS011;36247;51.952;6.146;2023-11-21T04:15:27;148.88;;;34.60;;
29908;SDS011;36247;51.952;6.146;2023-11-21T04:17:52;84.57;;;30.63;;
29908;SDS011;36247;51.952;6.146;2023-11-21T04:20:18;109.75;;;29.92;;
29908;SDS011;36247;51.952;6.146;2023-11-21T04:22:44;125.82;;;31.83;;
29908;SDS011;36247;51.952;6.146;2023-11-21T04:25:10;96.10;;;31.42;;
29908;SDS011;36247;51.952;6.146;2023-11-21T04:27:41;121.47;;;32.10;;
29908;SDS011;36247;51.952;6.146;2023-11-21T04:30:09;77.85;;;30.35;;
29908;SDS011;36247;51.952;6.146;2023-11-21T04:32:36;112.43;;;31.77;;
29908;SDS011;36247;51.952;6.146;2023-11-21T04:35:02;69.63;;;29.77;;
29908;SDS011;36247;51.952;6.146;2023-11-21T04:37:29;102.18;;;31.00;;
29908;SDS011;36247;51.952;6.146;2023-11-21T04:39:54;116.15;;;33.60;;
29908;SDS011;36247;51.952;6.146;2023-11-21T04:42:20;124.95;;;32.40;;
29908;SDS011;36247;51.952;6.146;2023-11-21T04:44:45;91.18;;;30.58;;
29908;SDS011;36247;51.952;6.146;2023-11-21T04:47:11;121.18;;;32.20;;
29908;SDS011;36247;51.952;6.146;2023-11-21T04:49:37;105.25;;;30.50;;
29908;SDS011;36247;51.952;6.146;2023-11-21T04:52:02;126.10;;;32.15;;
29908;SDS011;36247;51.952;6.146;2023-11-21T04:54:30;96.60;;;30.58;;
29908;SDS011;36247;51.952;6.146;2023-11-21T04:56:56;87.38;;;30.27;;
29908;SDS011;36247;51.952;6.146;2023-11-21T04:59:22;109.45;;;31.70;;
29908;SDS011;36247;51.952;6.146;2023-11-21T05:01:52;121.38;;;34.22;;
29908;SDS011;36247;51.952;6.146;2023-11-21T05:04:22;111.40;;;33.58;;
29908;SDS011;36247;51.952;6.146;2023-11-21T05:06:47;89.45;;;31.70;;
29908;SDS011;36247;51.952;6.146;2023-11-21T05:09:13;104.40;;;32.90;;
29908;SDS011;36247;51.952;6.146;2023-11-21T05:11:40;129.00;;;36.10;;
29908;SDS011;36247;51.952;6.146;2023-11-21T05:14:06;105.45;;;31.58;;
29908;SDS011;36247;51.952;6.146;2023-11-21T05:16:31;91.85;;;30.42;;
29908;SDS011;36247;51.952;6.146;2023-11-21T05:18:57;71.85;;;31.52;;
29908;SDS011;36247;51.952;6.146;2023-11-21T05:21:25;81.05;;;31.83;;
29908;SDS011;36247;51.952;6.146;2023-11-21T05:23:57;67.43;;;30.45;;
29908;SDS011;36247;51.952;6.146;2023-11-21T05:26:23;78.28;;;31.50;;
29908;SDS011;36247;51.952;6.146;2023-11-21T05:28:48;77.82;;;31.08;;
29908;SDS011;36247;51.952;6.146;2023-11-21T05:31:15;78.55;;;31.13;;
29908;SDS011;36247;51.952;6.146;2023-11-21T05:33:41;71.15;;;31.10;;
29908;SDS011;36247;51.952;6.146;2023-11-21T05:36:07;71.88;;;29.98;;
29908;SDS011;36247;51.952;6.146;2023-11-21T05:38:33;73.07;;;30.88;;
29908;SDS011;36247;51.952;6.146;2023-11-21T05:40:59;78.18;;;31.60;;
29908;SDS011;36247;51.952;6.146;2023-11-21T05:43:24;85.15;;;33.22;;
29908;SDS011;36247;51.952;6.146;2023-11-21T05:45:50;76.78;;;34.25;;
29908;SDS011;36247;51.952;6.146;2023-11-21T05:48:15;83.68;;;33.20;;
29908;SDS011;36247;51.952;6.146;2023-11-21T05:50:40;67.93;;;28.52;;
29908;SDS011;36247;51.952;6.146;2023-11-21T05:53:06;72.90;;;31.20;;
29908;SDS011;36247;51.952;6.146;2023-11-21T05:55:32;70.90;;;29.98;;
29908;SDS011;36247;51.952;6.146;2023-11-21T05:57:58;58.20;;;27.45;;
29908;SDS011;36247;51.952;6.146;2023-11-21T06:00:23;65.68;;;29.88;;
29908;SDS011;36247;51.952;6.146;2023-11-21T06:02:51;67.13;;;28.73;;
29908;SDS011;36247;51.952;6.146;2023-11-21T06:05:18;64.88;;;29.00;;
29908;SDS011;36247;51.952;6.146;2023-11-21T06:07:44;58.80;;;28.90;;
29908;SDS011;36247;51.952;6.146;2023-11-21T06:10:11;61.35;;;29.33;;
29908;SDS011;36247;51.952;6.146;2023-11-21T06:12:39;57.90;;;26.83;;
29908;SDS011;36247;51.952;6.146;2023-11-21T06:15:07;56.33;;;26.70;;
29908;SDS011;36247;51.952;6.146;2023-11-21T06:17:35;59.95;;;27.40;;
29908;SDS011;36247;51.952;6.146;2023-11-21T06:20:05;55.15;;;27.45;;
29908;SDS011;36247;51.952;6.146;2023-11-21T06:22:35;50.65;;;25.48;;
29908;SDS011;36247;51.952;6.146;2023-11-21T06:25:01;54.72;;;26.35;;
29908;SDS011;36247;51.952;6.146;2023-11-21T06:27:28;52.47;;;26.65;;
29908;SDS011;36247;51.952;6.146;2023-11-21T06:29:54;52.35;;;25.42;;
29908;SDS011;36247;51.952;6.146;2023-11-21T06:32:20;49.90;;;25.80;;
29908;SDS011;36247;51.952;6.146;2023-11-21T06:34:47;53.20;;;26.55;;
29908;SDS011;36247;51.952;6.146;2023-11-21T06:37:13;58.97;;;26.38;;
29908;SDS011;36247;51.952;6.146;2023-11-21T06:39:39;55.30;;;26.13;;
29908;SDS011;36247;51.952;6.146;2023-11-21T06:42:04;50.00;;;24.10;;
29908;SDS011;36247;51.952;6.146;2023-11-21T06:44:30;55.40;;;27.35;;
29908;SDS011;36247;51.952;6.146;2023-11-21T06:46:56;54.17;;;25.13;;
29908;SDS011;36247;51.952;6.146;2023-11-21T06:49:21;52.17;;;26.67;;
29908;SDS011;36247;51.952;6.146;2023-11-21T06:51:48;55.35;;;26.25;;
29908;SDS011;36247;51.952;6.146;2023-11-21T06:54:14;54.13;;;27.38;;
29908;SDS011;36247;51.952;6.146;2023-11-21T06:56:40;52.17;;;27.90;;
29908;SDS011;36247;51.952;6.146;2023-11-21T06:59:06;59.22;;;26.60;;
29908;SDS011;36247;51.952;6.146;2023-11-21T07:01:31;53.85;;;28.17;;
29908;SDS011;36247;51.952;6.146;2023-11-21T07:04:04;47.33;;;25.30;;
29908;SDS011;36247;51.952;6.146;2023-11-21T07:06:30;55.83;;;28.13;;
29908;SDS011;36247;51.952;6.146;2023-11-21T07:08:56;56.97;;;28.58;;
29908;SDS011;36247;51.952;6.146;2023-11-21T07:11:22;56.97;;;27.98;;
29908;SDS011;36247;51.952;6.146;2023-11-21T07:13:47;57.55;;;28.73;;
29908;SDS011;36247;51.952;6.146;2023-11-21T07:16:13;51.20;;;28.00;;
29908;SDS011;36247;51.952;6.146;2023-11-21T07:18:40;58.47;;;28.25;;
29908;SDS011;36247;51.952;6.146;2023-11-21T07:21:06;50.72;;;26.70;;
29908;SDS011;36247;51.952;6.146;2023-11-21T07:23:33;53.17;;;29.05;;
29908;SDS011;36247;51.952;6.146;2023-11-21T07:25:59;51.67;;;27.92;;
29908;SDS011;36247;51.952;6.146;2023-11-21T07:28:24;54.97;;;28.73;;
29908;SDS011;36247;51.952;6.146;2023-11-21T07:30:53;47.30;;;28.00;;
29908;SDS011;36247;51.952;6.146;2023-11-21T07:33:18;58.38;;;29.52;;
29908;SDS011;36247;51.952;6.146;2023-11-21T07:35:44;54.35;;;29.50;;
29908;SDS011;36247;51.952;6.146;2023-11-21T07:38:09;49.83;;;27.35;;
29908;SDS011;36247;51.952;6.146;2023-11-21T07:40:36;53.28;;;28.30;;
29908;SDS011;36247;51.952;6.146;2023-11-21T07:43:02;44.33;;;25.95;;
29908;SDS011;36247;51.952;6.146;2023-11-21T07:45:28;47.50;;;28.55;;
29908;SDS011;36247;51.952;6.146;2023-11-21T07:47:54;57.20;;;31.92;;
29908;SDS011;36247;51.952;6.146;2023-11-21T07:50:20;49.28;;;28.98;;
29908;SDS011;36247;51.952;6.146;2023-11-21T07:52:48;50.85;;;27.88;;
29908;SDS011;36247;51.952;6.146;2023-11-21T07:55:14;56.67;;;31.10;;
29908;SDS011;36247;51.952;6.146;2023-11-21T07:57:40;55.65;;;31.30;;
29908;SDS011;36247;51.952;6.146;2023-11-21T08:00:06;55.92;;;30.25;;
29908;SDS011;36247;51.952;6.146;2023-11-21T08:02:38;54.78;;;29.83;;
29908;SDS011;36247;51.952;6.146;2023-11-21T08:05:05;49.97;;;28.48;;
29908;SDS011;36247;51.952;6.146;2023-11-21T08:07:32;57.50;;;30.00;;
29908;SDS011;36247;51.952;6.146;2023-11-21T08:09:58;55.47;;;30.35;;
29908;SDS011;36247;51.952;6.146;2023-11-21T08:12:23;56.03;;;29.52;;
29908;SDS011;36247;51.952;6.146;2023-11-21T08:14:49;48.67;;;28.38;;
29908;SDS011;36247;51.952;6.146;2023-11-21T08:17:14;50.47;;;29.00;;
29908;SDS011;36247;51.952;6.146;2023-11-21T08:19:40;51.58;;;28.48;;
29908;SDS011;36247;51.952;6.146;2023-11-21T08:22:06;46.25;;;26.30;;
29908;SDS011;36247;51.952;6.146;2023-11-21T08:24:33;47.40;;;27.30;;
29908;SDS011;36247;51.952;6.146;2023-11-21T08:26:58;48.50;;;29.70;;
29908;SDS011;36247;51.952;6.146;2023-11-21T08:29:24;48.35;;;27.92;;
29908;SDS011;36247;51.952;6.146;2023-11-21T08:31:49;48.83;;;28.85;;
29908;SDS011;36247;51.952;6.146;2023-11-21T08:34:15;50.13;;;29.17;;
29908;SDS011;36247;51.952;6.146;2023-11-21T08:36:43;44.22;;;27.50;;
29908;SDS011;36247;51.952;6.146;2023-11-21T08:39:11;45.13;;;27.40;;
29908;SDS011;36247;51.952;6.146;2023-11-21T08:41:38;50.28;;;28.02;;
29908;SDS011;36247;51.952;6.146;2023-11-21T08:44:03;43.67;;;27.23;;
29908;SDS011;36247;51.952;6.146;2023-11-21T08:46:32;49.63;;;27.63;;
29908;SDS011;36247;51.952;6.146;2023-11-21T08:49:00;52.10;;;28.42;;
29908;SDS011;36247;51.952;6.146;2023-11-21T08:51:26;50.17;;;30.23;;
29908;SDS011;36247;51.952;6.146;2023-11-21T08:53:52;52.67;;;28.83;;
29908;SDS011;36247;51.952;6.146;2023-11-21T08:56:18;49.35;;;27.63;;
29908;SDS011;36247;51.952;6.146;2023-11-21T08:58:45;50.17;;;28.42;;
29908;SDS011;36247;51.952;6.146;2023-11-21T09:01:12;54.97;;;29.98;;
29908;SDS011;36247;51.952;6.146;2023-11-21T09:03:38;60.95;;;32.67;;
29908;SDS011;36247;51.952;6.146;2023-11-21T09:06:04;61.08;;;30.70;;
29908;SDS011;36247;51.952;6.146;2023-11-21T09:08:30;60.47;;;32.38;;
29908;SDS011;36247;51.952;6.146;2023-11-21T09:10:57;58.95;;;31.95;;
29908;SDS011;36247;51.952;6.146;2023-11-21T09:13:22;61.22;;;31.70;;
29908;SDS011;36247;51.952;6.146;2023-11-21T09:15:51;64.35;;;34.35;;
29908;SDS011;36247;51.952;6.146;2023-11-21T09:18:16;67.18;;;34.53;;
29908;SDS011;36247;51.952;6.146;2023-11-21T09:20:42;64.97;;;31.15;;
29908;SDS011;36247;51.952;6.146;2023-11-21T09:23:09;67.25;;;32.45;;
29908;SDS011;36247;51.952;6.146;2023-11-21T09:25:36;62.95;;;32.85;;
29908;SDS011;36247;51.952;6.146;2023-11-21T09:28:03;62.88;;;32.08;;
29908;SDS011;36247;51.952;6.146;2023-11-21T09:30:33;68.50;;;32.10;;
29908;SDS011;36247;51.952;6.146;2023-11-21T09:32:59;63.88;;;32.55;;
29908;SDS011;36247;51.952;6.146;2023-11-21T09:35:25;65.65;;;31.23;;
29908;SDS011;36247;51.952;6.146;2023-11-21T09:37:52;65.53;;;33.28;;
29908;SDS011;36247;51.952;6.146;2023-11-21T09:40:19;60.05;;;31.48;;
29908;SDS011;36247;51.952;6.146;2023-11-21T09:42:54;56.50;;;30.48;;
29908;SDS011;36247;51.952;6.146;2023-11-21T09:45:25;58.45;;;30.90;;
29908;SDS011;36247;51.952;6.146;2023-11-21T09:47:54;65.80;;;32.80;;
29908;SDS011;36247;51.952;6.146;2023-11-21T09:50:21;63.17;;;32.25;;
29908;SDS011;36247;51.952;6.146;2023-11-21T09:55:27;66.03;;;33.35;;
29908;SDS011;36247;51.952;6.146;2023-11-21T09:58:00;64.32;;;30.60;;
29908;SDS011;36247;51.952;6.146;2023-11-21T10:00:28;68.72;;;33.95;;
29908;SDS011;36247;51.952;6.146;2023-11-21T10:02:58;73.30;;;34.13;;
29908;SDS011;36247;51.952;6.146;2023-11-21T10:05:23;69.35;;;34.63;;
29908;SDS011;36247;51.952;6.146;2023-11-21T10:07:49;76.45;;;33.47;;
29908;SDS011;36247;51.952;6.146;2023-11-21T10:10:16;68.38;;;32.78;;
29908;SDS011;36247;51.952;6.146;2023-11-21T10:12:46;68.10;;;34.65;;
29908;SDS011;36247;51.952;6.146;2023-11-21T10:15:18;66.60;;;31.95;;
29908;SDS011;36247;51.952;6.146;2023-11-21T10:17:48;62.75;;;34.28;;
29908;SDS011;36247;51.952;6.146;2023-11-21T10:20:14;67.40;;;32.05;;
29908;SDS011;36247;51.952;6.146;2023-11-21T10:22:41;63.33;;;32.33;;
29908;SDS011;36247;51.952;6.146;2023-11-21T10:25:08;70.38;;;35.45;;
29908;SDS011;36247;51.952;6.146;2023-11-21T10:27:40;61.42;;;32.65;;
29908;SDS011;36247;51.952;6.146;2023-11-21T10:30:07;56.38;;;31.40;;
29908;SDS011;36247;51.952;6.146;2023-11-21T10:32:41;59.90;;;28.88;;
29908;SDS011;36247;51.952;6.146;2023-11-21T10:35:08;54.63;;;28.85;;
29908;SDS011;36247;51.952;6.146;2023-11-21T10:37:40;54.88;;;29.38;;
29908;SDS011;36247;51.952;6.146;2023-11-21T10:40:09;60.30;;;30.70;;
29908;SDS011;36247;51.952;6.146;2023-11-21T10:42:37;63.40;;;32.80;;
29908;SDS011;36247;51.952;6.146;2023-11-21T10:45:04;57.92;;;31.50;;
29908;SDS011;36247;51.952;6.146;2023-11-21T10:47:43;50.30;;;26.50;;
29908;SDS011;36247;51.952;6.146;2023-11-21T10:50:09;51.55;;;28.65;;
29908;SDS011;36247;51.952;6.146;2023-11-21T10:52:37;51.92;;;28.05;;
29908;SDS011;36247;51.952;6.146;2023-11-21T10:55:25;50.53;;;26.48;;
29908;SDS011;36247;51.952;6.146;2023-11-21T10:57:52;42.88;;;24.52;;
29908;SDS011;36247;51.952;6.146;2023-11-21T11:00:19;45.75;;;24.58;;
29908;SDS011;36247;51.952;6.146;2023-11-21T11:02:50;41.63;;;23.48;;
29908;SDS011;36247;51.952;6.146;2023-11-21T11:05:19;42.63;;;22.17;;
29908;SDS011;36247;51.952;6.146;2023-11-21T11:08:20;42.33;;;23.15;;
29908;SDS011;36247;51.952;6.146;2023-11-21T11:10:49;42.03;;;21.55;;
29908;SDS011;36247;51.952;6.146;2023-11-21T11:13:15;43.28;;;21.67;;
29908;SDS011;36247;51.952;6.146;2023-11-21T11:15:41;40.28;;;20.77;;
29908;SDS011;36247;51.952;6.146;2023-11-21T11:18:09;37.28;;;19.80;;
29908;SDS011;36247;51.952;6.146;2023-11-21T11:20:37;40.92;;;20.52;;
29908;SDS011;36247;51.952;6.146;2023-11-21T11:28:07;38.70;;;19.65;;
29908;SDS011;36247;51.952;6.146;2023-11-21T11:33:11;33.28;;;17.42;;
29908;SDS011;36247;51.952;6.146;2023-11-21T11:35:52;34.30;;;17.60;;
29908;SDS011;36247;51.952;6.146;2023-11-21T11:38:27;30.50;;;16.15;;
29908;SDS011;36247;51.952;6.146;2023-11-21T11:40:57;32.37;;;17.07;;
29908;SDS011;36247;51.952;6.146;2023-11-21T11:43:29;30.45;;;16.45;;
29908;SDS011;36247;51.952;6.146;2023-11-21T11:45:56;29.67;;;16.70;;
29908;SDS011;36247;51.952;6.146;2023-11-21T11:48:22;29.27;;;16.92;;
29908;SDS011;36247;51.952;6.146;2023-11-21T11:51:00;30.30;;;17.23;;
29908;SDS011;36247;51.952;6.146;2023-11-21T11:53:46;29.27;;;17.25;;
29908;SDS011;36247;51.952;6.146;2023-11-21T11:56:28;30.30;;;17.02;;
29908;SDS011;36247;51.952;6.146;2023-11-21T11:58:58;29.98;;;15.63;;
29908;SDS011;36247;51.952;6.146;2023-11-21T12:01:27;30.75;;;16.73;;
29908;SDS011;36247;51.952;6.146;2023-11-21T12:07:04;30.50;;;17.80;;
29908;SDS011;36247;51.952;6.146;2023-11-21T12:09:31;35.53;;;17.42;;
29908;SDS011;36247;51.952;6.146;2023-11-21T12:11:57;34.85;;;17.05;;
29908;SDS011;36247;51.952;6.146;2023-11-21T12:14:22;30.50;;;17.75;;
29908;SDS011;36247;51.952;6.146;2023-11-21T12:16:48;30.13;;;17.65;;
29908;SDS011;36247;51.952;6.146;2023-11-21T12:19:14;28.25;;;16.80;;
29908;SDS011;36247;51.952;6.146;2023-11-21T12:21:40;33.47;;;17.48;;
29908;SDS011;36247;51.952;6.146;2023-11-21T12:24:06;28.42;;;17.52;;
29908;SDS011;36247;51.952;6.146;2023-11-21T12:26:34;29.55;;;16.70;;
29908;SDS011;36247;51.952;6.146;2023-11-21T12:29:02;32.85;;;19.17;;
29908;SDS011;36247;51.952;6.146;2023-11-21T12:31:29;29.90;;;18.13;;
29908;SDS011;36247;51.952;6.146;2023-11-21T12:33:55;32.75;;;18.40;;
29908;SDS011;36247;51.952;6.146;2023-11-21T12:36:22;32.65;;;19.10;;
29908;SDS011;36247;51.952;6.146;2023-11-21T12:38:48;36.45;;;19.05;;
29908;SDS011;36247;51.952;6.146;2023-11-21T12:41:15;37.03;;;21.02;;
29908;SDS011;36247;51.952;6.146;2023-11-21T12:43:42;34.60;;;19.85;;
29908;SDS011;36247;51.952;6.146;2023-11-21T12:46:10;43.55;;;21.02;;
29908;SDS011;36247;51.952;6.146;2023-11-21T12:48:40;38.28;;;20.25;;
29908;SDS011;36247;51.952;6.146;2023-11-21T12:51:08;35.08;;;20.02;;
29908;SDS011;36247;51.952;6.146;2023-11-21T12:53:35;38.47;;;20.95;;
29908;SDS011;36247;51.952;6.146;2023-11-21T12:56:13;42.63;;;21.50;;
29908;SDS011;36247;51.952;6.146;2023-11-21T12:58:44;37.72;;;21.30;;
29908;SDS011;36247;51.952;6.146;2023-11-21T13:01:12;42.13;;;20.63;;
29908;SDS011;36247;51.952;6.146;2023-11-21T13:03:47;41.97;;;20.98;;
29908;SDS011;36247;51.952;6.146;2023-11-21T13:06:17;44.40;;;21.40;;
29908;SDS011;36247;51.952;6.146;2023-11-21T13:08:44;41.00;;;22.05;;
29908;SDS011;36247;51.952;6.146;2023-11-21T13:11:10;39.60;;;19.73;;
29908;SDS011;36247;51.952;6.146;2023-11-21T13:13:40;36.50;;;20.10;;
29908;SDS011;36247;51.952;6.146;2023-11-21T13:16:08;42.30;;;21.40;;
29908;SDS011;36247;51.952;6.146;2023-11-21T13:18:35;40.90;;;20.70;;
29908;SDS011;36247;51.952;6.146;2023-11-21T13:21:04;41.65;;;19.77;;
29908;SDS011;36247;51.952;6.146;2023-11-21T13:23:37;37.90;;;18.45;;
29908;SDS011;36247;51.952;6.146;2023-11-21T13:26:03;36.60;;;19.95;;
29908;SDS011;36247;51.952;6.146;2023-11-21T13:28:32;36.88;;;19.80;;
29908;SDS011;36247;51.952;6.146;2023-11-21T13:30:59;42.67;;;20.77;;
29908;SDS011;36247;51.952;6.146;2023-11-21T13:33:28;40.90;;;19.65;;
29908;SDS011;36247;51.952;6.146;2023-11-21T13:35:54;38.67;;;20.73;;
29908;SDS011;36247;51.952;6.146;2023-11-21T13:38:22;42.58;;;21.48;;
29908;SDS011;36247;51.952;6.146;2023-11-21T13:40:48;38.63;;;20.42;;
29908;SDS011;36247;51.952;6.146;2023-11-21T13:43:18;36.45;;;18.95;;
29908;SDS011;36247;51.952;6.146;2023-11-21T13:45:50;36.17;;;19.77;;
29908;SDS011;36247;51.952;6.146;2023-11-21T13:48:37;37.42;;;19.75;;
29908;SDS011;36247;51.952;6.146;2023-11-21T13:51:07;38.35;;;18.67;;
29908;SDS011;36247;51.952;6.146;2023-11-21T13:53:46;33.05;;;16.00;;
29908;SDS011;36247;51.952;6.146;2023-11-21T13:56:15;26.50;;;13.73;;
29908;SDS011;36247;51.952;6.146;2023-11-21T13:58:49;25.98;;;13.85;;
29908;SDS011;36247;51.952;6.146;2023-11-21T14:01:19;28.95;;;13.93;;
29908;SDS011;36247;51.952;6.146;2023-11-21T14:04:00;28.35;;;13.32;;
29908;SDS011;36247;51.952;6.146;2023-11-21T14:06:38;27.60;;;13.52;;
29908;SDS011;36247;51.952;6.146;2023-11-21T14:09:13;30.38;;;13.65;;
29908;SDS011;36247;51.952;6.146;2023-11-21T14:11:53;30.13;;;14.25;;
29908;SDS011;36247;51.952;6.146;2023-11-21T14:14:23;32.17;;;14.43;;
29908;SDS011;36247;51.952;6.146;2023-11-21T14:16:55;34.88;;;14.38;;
29908;SDS011;36247;51.952;6.146;2023-11-21T14:19:22;36.88;;;15.77;;
29908;SDS011;36247;51.952;6.146;2023-11-21T14:21:52;36.25;;;15.95;;
29908;SDS011;36247;51.952;6.146;2023-11-21T14:24:18;35.15;;;15.95;;
29908;SDS011;36247;51.952;6.146;2023-11-21T14:26:44;34.30;;;14.10;;
29908;SDS011;36247;51.952;6.146;2023-11-21T14:29:12;34.38;;;15.23;;
29908;SDS011;36247;51.952;6.146;2023-11-21T14:31:41;34.28;;;14.15;;
29908;SDS011;36247;51.952;6.146;2023-11-21T14:34:07;35.05;;;16.15;;
29908;SDS011;36247;51.952;6.146;2023-11-21T14:36:33;32.22;;;15.20;;